Time;durP1;ratioP1;P1;durP2;ratioP2;P2;SDS_P1;SDS_P2;PMS_P1;PMS_P2;Temp;Humidity;BMP_temperature;BMP_pressure;BME280_temperature;BME280_humidity;BME280_pressure;Samples;Min_cycle;Max_cycle;Signal;HPM_P1;HPM_P2
2022/05/29 00:01:11;;;;;;;7.65;1.20;;;;;;;9.42;85.96;100790.31;5004635;28;20072;-82
2022/05/29 00:03:37;;;;;;;5.53;1.60;;;;;;;9.46;86.06;100782.50;5004544;28;20599;-78
2022/05/29 00:06:05;;;;;;;6.57;1.50;;;;;;;9.42;86.21;100785.09;4972970;28;20076;-82
2022/05/29 00:08:34;;;;;;;8.60;2.03;;;;;;;9.39;86.98;100777.28;4983370;28;20050;-79
2022/05/29 00:11:02;;;;;;;8.15;1.88;;;;;;;9.39;86.95;100781.66;4989454;28;20050;-80
2022/05/29 00:13:29;;;;;;;6.20;2.00;;;;;;;9.37;87.19;100783.38;4989348;28;20488;-79
2022/05/29 00:15:56;;;;;;;4.10;1.40;;;;;;;9.38;87.32;100782.50;4973319;28;20050;-80
2022/05/29 00:18:23;;;;;;;2.38;1.30;;;;;;;9.36;87.29;100777.28;4969725;28;20057;-79
2022/05/29 00:20:53;;;;;;;3.70;1.80;;;;;;;9.35;87.59;100779.91;5004624;28;20171;-79
2022/05/29 00:23:21;;;;;;;3.47;1.45;;;;;;;9.34;87.58;100775.56;4984825;28;20064;-82
2022/05/29 00:25:51;;;;;;;6.05;1.58;;;;;;;9.32;87.74;100774.69;5015367;28;20061;-81
2022/05/29 00:28:19;;;;;;;10.27;2.25;;;;;;;9.35;87.77;100777.31;4966400;28;20065;-80
2022/05/29 00:30:46;;;;;;;11.70;3.10;;;;;;;9.35;87.72;100766.84;5004326;28;20038;-80
2022/05/29 00:33:13;;;;;;;2.42;1.25;;;;;;;9.33;88.08;100755.53;4984805;28;20558;-82
2022/05/29 00:35:41;;;;;;;7.20;2.25;;;;;;;9.29;88.73;100753.78;5001666;28;20049;-80
2022/05/29 00:38:13;;;;;;;4.05;1.25;;;;;;;9.25;88.85;100751.16;4984544;28;20235;-81
2022/05/29 00:41:17;;;;;;;7.28;1.83;;;;;;;9.23;89.65;100755.53;4988648;28;20049;-81
2022/05/29 00:43:47;;;;;;;7.38;2.03;;;;;;;9.23;90.36;100762.50;4987103;28;20064;-79
2022/05/29 00:46:14;;;;;;;4.32;1.67;;;;;;;9.14;91.57;100765.13;4988871;28;20526;-84
2022/05/29 00:48:40;;;;;;;3.83;1.67;;;;;;;9.08;91.89;100761.63;4973299;28;20429;-79
2022/05/29 00:51:12;;;;;;;3.25;1.58;;;;;;;9.05;92.90;100759.03;5001349;28;20046;-80
2022/05/29 00:53:39;;;;;;;5.78;1.20;;;;;;;9.02;93.28;100761.69;4987392;28;20079;-79
2022/05/29 00:56:11;;;;;;;5.45;1.25;;;;;;;9.03;93.55;100762.53;4998780;28;20065;-77
2022/05/29 00:58:38;;;;;;;2.17;1.70;;;;;;;9.00;94.27;100755.56;4983498;28;20390;-80
2022/05/29 01:01:06;;;;;;;5.97;2.10;;;;;;;8.93;94.82;100752.09;4968669;28;20068;-77
2022/05/29 01:03:32;;;;;;;6.88;1.83;;;;;;;8.93;95.48;100751.25;4970317;28;20053;-79
2022/05/29 01:05:59;;;;;;;6.28;1.73;;;;;;;8.93;95.67;100748.63;4989772;28;20069;-80
2022/05/29 01:08:31;;;;;;;4.22;1.90;;;;;;;8.92;95.52;100745.13;5000756;28;20049;-79
2022/05/29 01:11:30;;;;;;;5.20;1.80;;;;;;;8.94;95.55;100738.19;4984519;28;20064;-80
2022/05/29 01:14:24;;;;;;;2.50;1.40;;;;;;;8.85;95.55;100739.91;4987852;28;20057;-79
2022/05/29 01:17:07;;;;;;;5.32;1.42;;;;;;;8.74;96.07;100739.91;4988495;28;20041;-78
2022/05/29 01:20:30;;;;;;;8.63;2.08;;;;;;;8.70;96.89;100739.03;4981917;28;20053;-80
2022/05/29 01:23:30;;;;;;;5.10;2.00;;;;;;;8.74;96.62;100738.16;4986562;28;20455;-79
2022/05/29 01:26:08;;;;;;;1.52;1.38;;;;;;;8.81;96.23;100746.88;5002472;28;21010;-78
2022/05/29 01:29:06;;;;;;;6.55;1.65;;;;;;;8.86;95.66;100736.44;5001636;28;20037;-80
2022/05/29 01:31:53;;;;;;;3.03;1.15;;;;;;;8.88;95.42;100740.78;4983933;28;20511;-76
2022/05/29 01:34:29;;;;;;;8.18;1.65;;;;;;;8.92;95.09;100733.81;5002826;28;20297;-81
2022/05/29 01:37:13;;;;;;;6.88;2.00;;;;;;;8.91;95.39;100729.47;5003894;28;20054;-78
2022/05/29 01:40:04;;;;;;;7.20;1.80;;;;;;;8.95;95.34;100731.19;5002361;28;20038;-80
2022/05/29 01:42:46;;;;;;;4.30;2.10;;;;;;;8.93;95.52;100731.22;4999866;28;20416;-77
2022/05/29 01:45:54;;;;;;;4.35;1.23;;;;;;;8.93;96.11;100722.53;5005185;28;20416;-79
2022/05/29 01:48:47;;;;;;;7.53;1.85;;;;;;;8.92;96.56;100720.78;4986389;28;20042;-80
2022/05/29 01:51:27;;;;;;;4.22;2.25;;;;;;;8.94;96.51;100717.28;4985918;28;20064;-77
2022/05/29 01:54:09;;;;;;;6.80;2.75;;;;;;;8.98;97.25;100714.66;4970370;28;20060;-78
2022/05/29 01:56:42;;;;;;;8.05;1.70;;;;;;;8.96;97.32;100709.44;5007866;28;20054;-77
2022/05/29 01:59:50;;;;;;;3.25;2.00;;;;;;;8.94;98.44;100711.19;5001655;28;20044;-79
2022/05/29 02:02:24;;;;;;;6.40;1.92;;;;;;;8.90;98.86;100697.28;5003337;28;20081;-79
2022/05/29 02:04:57;;;;;;;7.72;2.58;;;;;;;8.90;98.71;100701.63;4996056;28;20139;-80
2022/05/29 02:10:38;;;;;;;4.80;2.13;;;;;;;8.91;98.87;100696.38;4998473;28;20022;-79
2022/05/29 02:13:35;;;;;;;9.63;2.47;;;;;;;8.87;99.47;100702.50;4983865;28;20189;-80
2022/05/29 02:16:11;;;;;;;6.50;2.22;;;;;;;8.88;99.29;100696.41;5005226;28;20424;-81
2022/05/29 02:19:11;;;;;;;4.32;2.15;;;;;;;8.90;99.38;100694.69;4999686;28;20477;-81
2022/05/29 02:22:00;;;;;;;6.82;2.42;;;;;;;8.93;98.95;100696.41;4990467;28;20049;-78
2022/05/29 02:24:34;;;;;;;7.93;2.55;;;;;;;8.97;99.26;100692.91;4985520;28;20453;-81
2022/05/29 02:27:15;;;;;;;10.45;2.78;;;;;;;8.97;98.73;100695.53;4986658;28;20058;-80
2022/05/29 02:29:42;;;;;;;12.35;2.92;;;;;;;8.95;99.30;100692.03;5001589;28;20120;-80
2022/05/29 02:32:47;;;;;;;7.82;2.20;;;;;;;8.89;100.00;100684.22;5010254;28;20050;-82
2022/05/29 02:35:38;;;;;;;;;;;;;;;8.88;100.00;100682.50;4987963;28;20611;-82
2022/05/29 02:38:36;;;;;;;7.15;2.83;;;;;;;8.85;100.00;100680.75;5011821;28;19930;-81
2022/05/29 02:41:15;;;;;;;7.07;2.45;;;;;;;8.85;100.00;100682.47;4981244;28;20301;-82
2022/05/29 02:43:53;;;;;;;12.73;2.60;;;;;;;8.85;100.00;100677.25;5002043;28;20032;-80
2022/05/29 02:46:44;;;;;;;3.15;2.38;;;;;;;8.86;100.00;100687.69;4978026;28;20036;-82
2022/05/29 02:49:15;;;;;;;5.85;2.42;;;;;;;8.86;100.00;100681.63;5002846;28;20487;-82
2022/05/29 02:52:16;;;;;;;9.98;2.45;;;;;;;8.85;100.00;100680.75;5003954;28;20447;-80
2022/05/29 02:54:42;;;;;;;5.75;2.28;;;;;;;8.87;100.00;100675.53;4960298;28;20054;-81
2022/05/29 02:57:09;;;;;;;4.97;2.25;;;;;;;8.80;100.00;100673.78;4972203;28;20050;-81
2022/05/29 02:59:40;;;;;;;7.93;2.80;;;;;;;8.77;100.00;100679.88;4985296;28;20050;-81
2022/05/29 03:02:38;;;;;;;11.00;2.85;;;;;;;8.76;100.00;100676.41;4986438;28;20064;-81
2022/05/29 03:05:36;;;;;;;5.65;2.70;;;;;;;8.76;100.00;100670.31;4998408;28;20050;-80
2022/05/29 03:08:23;;;;;;;7.25;2.60;;;;;;;8.70;100.00;100670.34;4983330;28;20046;-81
2022/05/29 03:11:20;;;;;;;10.65;2.85;;;;;;;8.69;100.00;100672.06;5004442;28;20061;-81
2022/05/29 03:14:02;;;;;;;4.25;2.28;;;;;;;8.67;100.00;100662.50;4986540;28;20064;-83
2022/05/29 03:16:56;;;;;;;9.15;3.25;;;;;;;8.69;100.00;100659.00;4991576;28;20053;-81
2022/05/29 03:19:59;;;;;;;4.70;3.50;;;;;;;8.70;100.00;100654.66;5000048;28;20041;-80
2022/05/29 03:22:48;;;;;;;9.38;3.00;;;;;;;8.68;100.00;100661.63;5001040;28;20073;-81
2022/05/29 03:25:31;;;;;;;7.50;2.33;;;;;;;8.70;100.00;100652.91;5003077;28;20049;-80
2022/05/29 03:28:00;;;;;;;10.98;3.13;;;;;;;8.69;100.00;100659.00;5017459;28;20313;-81
2022/05/29 03:30:34;;;;;;;9.02;2.40;;;;;;;8.69;100.00;100660.75;5024406;28;20052;-81
2022/05/29 03:33:04;;;;;;;6.72;2.72;;;;;;;8.73;100.00;100658.13;4975889;28;20054;-81
2022/05/29 03:35:53;;;;;;;5.35;2.95;;;;;;;8.70;100.00;100659.91;5002576;28;20514;-81
2022/05/29 03:38:22;;;;;;;9.32;3.08;;;;;;;8.68;100.00;100656.41;4983307;28;20048;-80
2022/05/29 03:40:49;;;;;;;9.93;3.25;;;;;;;8.71;100.00;100653.81;5004111;28;20508;-82
2022/05/29 03:43:17;;;;;;;9.02;2.97;;;;;;;8.74;100.00;100651.19;5002628;28;20056;-82
2022/05/29 03:45:44;;;;;;;13.55;3.30;;;;;;;8.77;100.00;100654.66;4995124;28;20141;-81
2022/05/29 03:48:10;;;;;;;7.78;2.67;;;;;;;8.81;100.00;100652.91;4989554;28;20060;-81
2022/05/29 03:50:37;;;;;;;5.25;2.38;;;;;;;8.82;100.00;100648.56;4976441;28;20050;-83
2022/05/29 03:53:05;;;;;;;6.22;2.95;;;;;;;8.85;100.00;100654.66;5004270;28;20538;-83
2022/05/29 03:55:32;;;;;;;13.60;4.05;;;;;;;8.83;100.00;100645.09;4991007;28;20104;-80
2022/05/29 03:57:59;;;;;;;8.90;2.90;;;;;;;8.76;100.00;100645.09;5005651;28;20050;-82
2022/05/29 04:00:26;;;;;;;6.80;2.08;;;;;;;8.76;100.00;100639.88;4996307;28;20711;-81
2022/05/29 04:02:54;;;;;;;4.60;2.13;;;;;;;8.77;100.00;100631.19;4991650;28;20054;-81
2022/05/29 04:05:24;;;;;;;9.52;3.00;;;;;;;8.77;100.00;100633.78;4988960;28;20119;-81
2022/05/29 04:13:25;;;;;;;6.97;3.05;;;;;;;8.88;99.95;100632.91;5006397;28;20068;-82
2022/05/29 04:15:51;;;;;;;7.80;3.15;;;;;;;8.90;99.60;100637.25;4996184;28;20062;-82
2022/05/29 04:18:21;;;;;;;7.22;2.70;;;;;;;8.92;98.70;100640.69;4991568;28;20056;-80
2022/05/29 04:20:52;;;;;;;5.03;2.30;;;;;;;8.95;98.41;100639.81;4986921;28;20356;-81
2022/05/29 04:23:19;;;;;;;12.63;2.28;;;;;;;8.96;98.16;100630.22;5006425;28;20045;-82
2022/05/29 04:25:46;;;;;;;9.55;2.35;;;;;;;8.99;97.54;100631.09;5020413;28;20064;-80
2022/05/29 04:28:13;;;;;;;5.90;2.28;;;;;;;9.03;97.05;100632.81;4973485;28;20041;-81
2022/05/29 04:30:39;;;;;;;8.55;2.30;;;;;;;9.07;96.41;100631.09;4991486;28;20045;-81
2022/05/29 04:33:06;;;;;;;7.70;3.42;;;;;;;9.12;96.56;100637.16;5008067;28;20118;-83
2022/05/29 04:35:44;;;;;;;7.90;2.58;;;;;;;9.14;95.47;100639.75;5005240;28;20106;-82
2022/05/29 04:38:12;;;;;;;8.02;2.30;;;;;;;9.14;95.53;100624.97;4990565;28;20078;-81
2022/05/29 04:40:45;;;;;;;12.90;2.55;;;;;;;9.14;95.63;100632.81;5007064;28;20042;-83
2022/05/29 04:43:14;;;;;;;13.98;2.33;;;;;;;9.18;95.43;100618.00;5010840;28;20104;-82
2022/05/29 04:45:43;;;;;;;8.10;2.97;;;;;;;9.19;95.57;100633.66;4979021;28;20041;-80
2022/05/29 04:48:11;;;;;;;5.38;2.15;;;;;;;9.21;95.04;100625.81;4976736;28;20046;-81
2022/05/29 04:50:39;;;;;;;11.70;2.80;;;;;;;9.20;94.90;100618.84;4991485;28;20117;-83
2022/05/29 04:53:07;;;;;;;5.60;2.30;;;;;;;9.21;94.82;100624.06;5009001;28;20143;-81
2022/05/29 04:55:35;;;;;;;9.82;3.17;;;;;;;9.22;94.89;100624.94;4977016;28;20410;-80
2022/05/29 04:58:04;;;;;;;12.68;3.10;;;;;;;9.24;94.60;100620.56;4990722;28;20049;-83
2022/05/29 05:00:30;;;;;;;12.23;2.90;;;;;;;9.23;95.05;100621.44;4976091;28;20053;-81
2022/05/29 05:02:57;;;;;;;7.25;2.08;;;;;;;9.25;95.12;100628.41;4992138;28;20073;-81
2022/05/29 05:05:23;;;;;;;10.15;2.80;;;;;;;9.29;94.60;100621.44;4989880;28;20088;-81
2022/05/29 05:07:51;;;;;;;6.30;2.30;;;;;;;9.32;94.44;100629.28;4990935;28;20438;-81
2022/05/29 05:10:18;;;;;;;9.07;2.85;;;;;;;9.35;94.60;100621.41;5021171;28;20056;-81
2022/05/29 05:12:46;;;;;;;14.13;3.05;;;;;;;9.41;94.04;100626.63;4971428;28;20056;-81
2022/05/29 05:15:16;;;;;;;11.13;3.65;;;;;;;9.51;93.71;100623.94;4993957;28;20046;-82
2022/05/29 05:17:43;;;;;;;14.25;3.65;;;;;;;9.56;93.57;100623.03;4990584;28;20056;-80
2022/05/29 05:20:14;;;;;;;6.72;3.33;;;;;;;9.58;93.28;100626.53;4973907;28;20048;-82
2022/05/29 05:22:42;;;;;;;8.80;3.25;;;;;;;9.53;93.18;100614.34;4984823;28;20069;-81
2022/05/29 05:25:10;;;;;;;9.10;2.80;;;;;;;9.53;93.66;100614.34;4990514;28;20045;-81
2022/05/29 05:27:37;;;;;;;8.57;3.60;;;;;;;9.57;93.20;100614.34;4970551;28;21290;-80
2022/05/29 05:30:05;;;;;;;10.98;2.97;;;;;;;9.60;93.46;100606.47;4993920;28;20061;-82
2022/05/29 05:32:32;;;;;;;11.88;3.15;;;;;;;9.60;93.45;100616.06;4977154;28;20417;-80
2022/05/29 05:35:02;;;;;;;9.93;2.75;;;;;;;9.66;93.27;100621.25;4998162;28;20145;-80
2022/05/29 05:37:31;;;;;;;7.78;2.70;;;;;;;9.65;93.05;100624.75;4983336;28;20147;-82
2022/05/29 05:39:58;;;;;;;12.27;2.72;;;;;;;9.68;92.58;100632.56;4976123;28;20050;-81
2022/05/29 05:42:25;;;;;;;12.70;3.38;;;;;;;9.69;92.47;100633.44;5008020;28;20056;-81
2022/05/29 05:44:51;;;;;;;6.10;3.65;;;;;;;9.71;92.67;100622.09;4996419;28;20641;-82
2022/05/29 05:47:22;;;;;;;10.10;2.88;;;;;;;9.72;92.69;100622.97;4996222;28;20059;-81
2022/05/29 05:49:49;;;;;;;10.60;2.67;;;;;;;9.73;92.34;100625.56;4959687;28;20046;-81
2022/05/29 05:52:18;;;;;;;13.25;3.67;;;;;;;9.70;92.00;100632.53;4988936;28;20506;-81
2022/05/29 05:54:45;;;;;;;9.27;2.53;;;;;;;9.67;92.50;100630.81;4994545;28;20057;-82
2022/05/29 05:57:12;;;;;;;9.43;2.83;;;;;;;9.71;91.98;100621.22;4993593;28;20084;-81
2022/05/29 05:59:41;;;;;;;6.63;3.20;;;;;;;9.66;91.77;100623.88;4992909;28;20152;-82
2022/05/29 06:02:10;;;;;;;7.68;2.63;;;;;;;9.67;92.04;100622.13;4978136;28;20049;-81
2022/05/29 06:04:41;;;;;;;5.65;3.50;;;;;;;9.69;92.00;100621.22;4974021;28;20054;-83
2022/05/29 06:07:08;;;;;;;13.07;3.35;;;;;;;9.73;91.38;100625.56;5006946;28;20623;-80
2022/05/29 06:09:36;;;;;;;10.05;3.45;;;;;;;9.80;91.30;100628.13;4972840;28;20041;-82
2022/05/29 06:12:04;;;;;;;4.07;3.05;;;;;;;9.86;90.38;100631.59;4992870;28;20148;-81
2022/05/29 06:14:33;;;;;;;11.25;2.75;;;;;;;9.99;89.58;100628.91;4991847;28;20054;-80
2022/05/29 06:16:59;;;;;;;9.68;3.22;;;;;;;10.01;88.35;100628.00;4994484;28;20074;-82
2022/05/29 06:19:26;;;;;;;8.73;2.95;;;;;;;10.03;88.35;100625.38;4975202;28;20485;-82
2022/05/29 06:21:52;;;;;;;6.93;2.72;;;;;;;10.03;87.78;100630.63;4974333;28;20070;-80
2022/05/29 06:24:19;;;;;;;12.25;3.53;;;;;;;10.01;88.02;100634.97;4988503;28;20115;-81
2022/05/29 06:26:45;;;;;;;8.98;2.90;;;;;;;10.02;88.42;100632.34;4991229;28;20084;-80
2022/05/29 06:29:12;;;;;;;8.95;2.97;;;;;;;10.04;88.08;100622.75;5006473;28;20042;-81
2022/05/29 06:31:41;;;;;;;8.50;2.75;;;;;;;10.05;87.97;100628.84;4973558;28;20049;-81
2022/05/29 06:34:08;;;;;;;7.80;2.78;;;;;;;10.05;88.04;100631.44;5006939;28;20038;-81
2022/05/29 06:36:34;;;;;;;10.18;2.97;;;;;;;10.06;88.34;100631.47;4988854;28;20050;-84
2022/05/29 06:39:01;;;;;;;5.88;2.78;;;;;;;10.07;88.03;100625.34;5002244;28;20042;-81
2022/05/29 06:41:30;;;;;;;9.35;3.20;;;;;;;10.03;88.39;100622.78;4966583;28;20080;-85
2022/05/29 06:43:56;;;;;;;5.60;2.55;;;;;;;10.03;89.17;100630.63;4986744;28;20057;-82
2022/05/29 06:46:23;;;;;;;8.10;3.40;;;;;;;10.08;89.13;100626.22;5004048;28;20133;-82
2022/05/29 06:48:50;;;;;;;4.53;2.33;;;;;;;10.13;89.11;100631.41;4987571;28;20057;-83
2022/05/29 06:51:23;;;;;;;8.70;2.72;;;;;;;10.22;88.54;100620.84;4988496;28;20054;-83
2022/05/29 06:53:56;;;;;;;4.93;2.40;;;;;;;10.34;88.44;100625.13;4987523;28;20123;-82
2022/05/29 06:56:23;;;;;;;7.03;1.88;;;;;;;10.53;86.71;100624.13;4989261;28;20784;-83
2022/05/29 06:58:50;;;;;;;9.25;2.92;;;;;;;10.71;85.91;100625.69;5019059;28;20046;-83
2022/05/29 07:07:01;;;;;;;7.70;2.30;;;;;;;11.09;83.01;100615.69;4981164;28;20039;-83
2022/05/29 07:09:39;;;;;;;7.85;2.85;;;;;;;11.17;82.06;100620.84;5004001;28;20125;-83
2022/05/29 07:12:26;;;;;;;6.10;2.55;;;;;;;11.16;82.11;100612.13;4985749;28;20069;-83
2022/05/29 07:14:59;;;;;;;5.00;2.20;;;;;;;11.19;81.65;100619.06;4989615;28;20230;-83
2022/05/29 07:17:27;;;;;;;9.68;2.65;;;;;;;11.14;81.91;100619.13;5022720;28;20572;-84
2022/05/29 07:19:54;;;;;;;8.85;2.47;;;;;;;11.22;81.65;100612.06;4990849;28;20049;-83
2022/05/29 07:22:21;;;;;;;3.88;1.98;;;;;;;11.41;81.56;100615.28;4992579;28;20060;-84
2022/05/29 07:24:48;;;;;;;11.30;2.42;;;;;;;11.63;80.42;100619.38;4996084;28;20053;-83
2022/05/29 07:27:15;;;;;;;9.60;2.53;;;;;;;11.78;79.58;100615.69;4993282;28;20056;-83
2022/05/29 07:29:42;;;;;;;4.97;2.60;;;;;;;11.91;78.51;100619.84;4969623;28;20046;-84
2022/05/29 07:32:11;;;;;;;7.05;2.95;;;;;;;12.00;78.03;100619.72;4988884;28;20045;-85
2022/05/29 07:34:37;;;;;;;9.60;2.40;;;;;;;12.15;76.84;100610.78;4972312;28;20046;-83
2022/05/29 07:37:07;;;;;;;5.63;2.00;;;;;;;12.20;75.87;100608.94;4957333;28;20699;-83
2022/05/29 07:39:41;;;;;;;3.33;1.65;;;;;;;12.12;75.12;100610.78;4954965;28;20617;-82
2022/05/29 07:44:53;;;;;;;6.93;1.83;;;;;;;11.99;75.69;100606.66;4957082;28;19917;-83
2022/05/29 07:47:21;;;;;;;3.58;1.73;;;;;;;12.00;75.46;100611.00;4972185;28;20843;-83
2022/05/29 07:49:48;;;;;;;2.90;1.63;;;;;;;12.06;75.27;100608.28;4969237;28;20408;-82
2022/05/29 07:52:14;;;;;;;7.13;2.67;;;;;;;12.09;75.36;100608.22;4984253;28;20046;-84
2022/05/29 07:54:41;;;;;;;6.88;2.28;;;;;;;12.13;74.37;100604.66;4967077;28;20053;-84
2022/05/29 07:57:08;;;;;;;7.88;1.55;;;;;;;12.11;75.18;100603.84;4970158;28;20123;-83
2022/05/29 07:59:34;;;;;;;8.88;2.40;;;;;;;12.40;73.29;100595.47;4975042;28;20058;-82
2022/05/29 08:02:01;;;;;;;4.15;1.95;;;;;;;12.73;72.70;100600.13;4971419;28;20053;-82
2022/05/29 08:04:28;;;;;;;3.13;2.13;;;;;;;13.11;71.30;100597.66;4969936;28;20473;-81
2022/05/29 08:06:55;;;;;;;3.35;1.83;;;;;;;13.24;70.85;100594.75;4983351;28;20058;-82
2022/05/29 08:09:21;;;;;;;3.67;2.25;;;;;;;12.85;72.59;100597.28;4984405;28;20962;-84
2022/05/29 08:11:48;;;;;;;4.93;1.98;;;;;;;12.64;74.60;100605.56;4962424;28;20046;-83
2022/05/29 08:14:14;;;;;;;3.25;1.73;;;;;;;12.43;76.09;100609.44;4976148;28;21609;-83
2022/05/29 08:16:41;;;;;;;3.45;1.70;;;;;;;12.33;76.20;100601.72;4966681;28;20161;-84
2022/05/29 08:19:08;;;;;;;2.90;1.90;;;;;;;12.24;75.85;100601.84;4972073;28;20046;-82
2022/05/29 08:21:35;;;;;;;3.28;1.88;;;;;;;12.32;75.92;100591.22;4987635;28;20053;-80
2022/05/29 08:32:16;;;;;;;4.13;1.48;;;;;;;13.62;68.35;100600.09;4991921;28;20516;-84
2022/05/29 08:34:43;;;;;;;8.85;2.47;;;;;;;13.30;68.93;100595.53;4993062;28;20057;-84
2022/05/29 08:37:11;;;;;;;4.13;1.80;;;;;;;12.84;70.33;100603.44;4959990;28;20053;-84
2022/05/29 08:39:38;;;;;;;4.05;1.92;;;;;;;12.33;73.42;100603.47;4976789;28;20084;-82
2022/05/29 08:42:05;;;;;;;7.53;3.13;;;;;;;11.94;77.06;100601.41;4985356;28;20057;-83
2022/05/29 08:44:50;;;;;;;7.38;2.88;;;;;;;11.65;78.45;100605.34;4954751;28;20080;-83
2022/05/29 08:47:24;;;;;;;6.80;3.42;;;;;;;11.48;79.27;100600.34;4974378;28;20046;-83
2022/05/29 08:49:50;;;;;;;3.78;1.77;;;;;;;11.39;80.68;100603.97;4987320;28;20051;-83
2022/05/29 08:52:54;;;;;;;4.53;2.33;;;;;;;11.22;80.88;100606.81;4984451;28;20501;-84
2022/05/29 08:55:54;;;;;;;6.70;2.30;;;;;;;11.03;83.89;100608.78;4995395;28;20038;-84
2022/05/29 08:58:56;;;;;;;6.53;1.90;;;;;;;11.06;83.86;100602.63;4991076;28;20046;-83
2022/05/29 09:02:13;;;;;;;7.53;2.15;;;;;;;11.30;83.05;100603.22;4949793;28;20113;-82
2022/05/29 09:04:46;;;;;;;4.10;1.92;;;;;;;11.48;80.52;100594.25;4963119;28;20054;-85
2022/05/29 09:07:17;;;;;;;3.42;1.55;;;;;;;11.62;78.67;100596.69;4969917;28;20060;-84
2022/05/29 09:10:06;;;;;;;5.55;1.98;;;;;;;12.08;77.37;100590.75;4975583;28;20899;-84
2022/05/29 09:12:55;;;;;;;6.78;1.98;;;;;;;13.14;72.03;100582.69;4984125;28;20045;-83
2022/05/29 09:15:38;;;;;;;2.53;1.70;;;;;;;13.26;70.15;100589.47;4993316;28;20042;-85
2022/05/29 09:18:31;;;;;;;4.68;1.77;;;;;;;12.93;70.83;100589.22;4961109;28;20144;-83
2022/05/29 09:21:18;;;;;;;3.97;1.88;;;;;;;12.38;73.21;100599.00;4976148;28;20049;-83
2022/05/29 09:24:08;;;;;;;4.93;1.70;;;;;;;12.04;75.72;100599.56;4991684;28;20054;-85
2022/05/29 09:26:39;;;;;;;5.07;1.60;;;;;;;11.80;76.27;100592.91;4985617;28;20058;-84
2022/05/29 09:29:09;;;;;;;2.50;1.88;;;;;;;11.68;76.85;100591.31;4992266;28;20056;-83
2022/05/29 09:31:39;;;;;;;4.63;1.60;;;;;;;11.51;77.94;100591.56;4988906;28;20242;-84
2022/05/29 09:34:06;;;;;;;1.75;1.10;;;;;;;11.38;79.10;100598.72;4974057;28;20045;-83
2022/05/29 09:36:55;;;;;;;2.67;1.55;;;;;;;11.39;77.82;100589.97;4992406;28;20059;-83
2022/05/29 09:39:34;;;;;;;3.75;1.65;;;;;;;11.30;78.89;100601.44;4985746;28;20053;-82
2022/05/29 09:42:13;;;;;;;1.70;1.15;;;;;;;11.22;80.23;100592.81;4967716;28;20057;-85
2022/05/29 09:45:03;;;;;;;4.03;2.10;;;;;;;11.27;81.45;100587.53;4983877;28;20085;-82
2022/05/29 09:50:22;;;;;;;3.80;1.38;;;;;;;11.44;82.08;100589.94;4969462;28;20045;-81
2022/05/29 09:52:49;;;;;;;2.08;1.67;;;;;;;11.56;84.30;100584.50;5001307;28;20053;-81
2022/05/29 09:55:32;;;;;;;3.22;1.70;;;;;;;11.58;85.34;100590.59;4986183;28;20044;-84
2022/05/29 09:58:04;;;;;;;10.75;1.65;;;;;;;11.61;86.86;100595.78;5000061;28;20129;-82
2022/05/29 10:00:39;;;;;;;2.67;1.45;;;;;;;11.58;87.64;100593.22;4967948;28;20263;-83
2022/05/29 10:03:10;;;;;;;4.35;1.38;;;;;;;11.61;88.02;100592.31;4989340;28;20129;-84
2022/05/29 10:05:40;;;;;;;2.03;0.77;;;;;;;11.67;87.13;100600.09;4988917;28;20053;-81
2022/05/29 10:08:31;;;;;;;4.57;1.20;;;;;;;11.58;88.45;100601.94;4984748;28;20080;-83
2022/05/29 10:11:15;;;;;;;1.70;0.98;;;;;;;11.54;89.02;100604.66;4986740;28;20496;-83
2022/05/29 10:13:44;;;;;;;1.48;0.90;;;;;;;11.57;88.43;100600.22;4970717;28;20576;-83
2022/05/29 10:16:12;;;;;;;0.88;0.88;;;;;;;11.68;89.73;100599.19;4972085;28;20073;-84
2022/05/29 10:18:43;;;;;;;1.45;0.90;;;;;;;11.91;88.19;100597.13;4974271;28;20053;-84
2022/05/29 10:21:24;;;;;;;1.45;1.35;;;;;;;12.27;85.40;100595.69;4987915;28;20330;-84
2022/05/29 10:24:14;;;;;;;1.98;0.70;;;;;;;12.72;83.26;100593.16;4990573;28;20080;-82
2022/05/29 10:26:49;;;;;;;3.40;1.20;;;;;;;13.31;79.52;100590.22;4978084;28;20046;-85
2022/05/29 10:29:27;;;;;;;2.80;1.17;;;;;;;13.76;76.14;100591.03;5012139;28;20054;-83
2022/05/29 10:31:55;;;;;;;3.40;1.30;;;;;;;13.88;75.11;100585.47;4982147;28;20468;-83
2022/05/29 10:34:32;;;;;;;2.22;1.40;;;;;;;13.69;75.15;100595.56;4993776;28;20131;-82
2022/05/29 10:37:01;;;;;;;3.83;1.92;;;;;;;13.37;75.19;100600.63;4991794;28;20064;-82
2022/05/29 10:39:32;;;;;;;4.50;1.23;;;;;;;13.09;74.66;100592.44;4995427;28;20123;-83
2022/05/29 10:41:59;;;;;;;3.92;1.25;;;;;;;12.98;74.28;100597.03;5009272;28;20068;-83
2022/05/29 10:44:47;;;;;;;1.65;1.33;;;;;;;13.17;74.40;100593.13;4978182;28;20061;-84
2022/05/29 10:47:29;;;;;;;1.58;1.17;;;;;;;13.87;72.70;100583.72;5028389;28;20080;-81
2022/05/29 10:50:26;;;;;;;2.13;0.95;;;;;;;15.72;67.43;100580.44;5006237;28;20137;-85
2022/05/29 10:53:17;;;;;;;2.25;1.10;;;;;;;16.65;59.84;100575.63;4994974;28;20350;-83
2022/05/29 10:56:07;;;;;;;0.77;0.52;;;;;;;16.37;60.75;100573.09;5009172;28;20280;-84
2022/05/29 10:58:43;;;;;;;2.30;0.80;;;;;;;15.65;62.23;100577.16;4977873;28;20420;-83
2022/05/29 11:04:38;;;;;;;3.17;1.00;;;;;;;14.33;67.20;100574.72;5005779;28;20034;-85
2022/05/29 11:07:23;;;;;;;1.23;1.00;;;;;;;13.83;70.39;100577.69;4989866;28;20454;-83
2022/05/29 11:10:17;;;;;;;7.35;1.40;;;;;;;13.42;72.57;100573.38;4990095;28;20045;-83
2022/05/29 11:13:00;;;;;;;5.15;1.80;;;;;;;13.11;74.17;100572.22;5007574;28;20127;-83
2022/05/29 11:15:41;;;;;;;4.33;1.90;;;;;;;12.91;75.19;100565.63;5026356;28;20394;-84
2022/05/29 11:18:39;;;;;;;3.88;2.05;;;;;;;13.12;75.00;100560.81;5013980;28;20410;-83
2022/05/29 11:21:52;;;;;;;2.00;1.67;;;;;;;13.43;73.66;100560.19;4994390;28;20523;-82
2022/05/29 11:25:00;;;;;;;5.47;1.73;;;;;;;13.89;72.77;100559.13;4993365;28;20037;-83
2022/05/29 11:28:08;;;;;;;5.25;1.55;;;;;;;14.02;70.42;100559.69;5005539;28;20053;-84
2022/05/29 11:31:06;;;;;;;2.25;1.00;;;;;;;13.56;71.13;100550.28;5011035;28;20057;-84
2022/05/29 11:34:07;;;;;;;4.53;1.80;;;;;;;13.19;72.92;100558.94;4988515;28;20545;-82
2022/05/29 11:37:20;;;;;;;1.85;1.38;;;;;;;12.70;76.09;100555.56;5002701;28;20057;-83
2022/05/29 11:40:15;;;;;;;2.35;1.35;;;;;;;12.44;79.54;100561.25;4987999;28;20052;-83
2022/05/29 11:43:09;;;;;;;5.72;1.83;;;;;;;12.35;83.69;100555.31;5018906;28;20053;-81
2022/05/29 11:51:45;;;;;;;5.90;2.78;;;;;;;12.49;85.97;100556.81;5018598;28;20041;-84
2022/05/29 11:54:22;;;;;;;5.47;2.55;;;;;;;12.66;85.73;100549.50;4991013;28;20061;-84
2022/05/29 11:57:04;;;;;;;4.53;2.20;;;;;;;12.73;84.76;100545.84;5003816;28;20069;-82
2022/05/29 11:59:43;;;;;;;4.25;1.92;;;;;;;12.70;85.35;100545.03;4992711;28;20127;-84
2022/05/29 12:02:27;;;;;;;2.28;1.80;;;;;;;12.56;84.58;100547.94;5005755;28;20803;-83
2022/05/29 12:05:28;;;;;;;5.18;1.98;;;;;;;12.45;85.26;100540.25;5022749;28;20150;-83
2022/05/29 12:08:16;;;;;;;6.50;1.95;;;;;;;12.29;84.53;100539.66;5020440;28;20658;-83
2022/05/29 12:10:57;;;;;;;1.02;1.02;;;;;;;12.06;80.92;100537.47;4989346;28;20061;-84
2022/05/29 12:13:29;;;;;;;6.20;0.93;;;;;;;11.87;80.49;100536.84;5002226;28;20141;-83
2022/05/29 12:16:05;;;;;;;1.75;0.73;;;;;;;11.85;80.64;100533.38;5009450;28;20568;-83
2022/05/29 12:18:42;;;;;;;2.08;0.60;;;;;;;12.08;80.87;100527.78;5007421;28;20045;-85
2022/05/29 12:21:15;;;;;;;0.85;0.60;;;;;;;12.54;79.14;100523.44;4989429;28;20096;-84
2022/05/29 12:23:48;;;;;;;2.42;0.90;;;;;;;13.12;76.42;100523.19;4986912;28;20323;-85
2022/05/29 12:26:29;;;;;;;1.83;0.60;;;;;;;13.84;72.79;100515.41;4971063;28;20398;-83
2022/05/29 12:29:04;;;;;;;1.63;0.50;;;;;;;14.65;69.36;100516.84;4987261;28;20054;-84
2022/05/29 12:31:41;;;;;;;4.03;1.50;;;;;;;15.47;66.42;100514.41;4987075;28;20136;-84
2022/05/29 12:34:26;;;;;;;2.38;0.75;;;;;;;15.87;62.31;100511.38;4989110;28;20088;-84
2022/05/29 12:37:14;;;;;;;0.40;0.40;;;;;;;16.01;62.71;100513.56;4988184;28;20057;-84
2022/05/29 12:40:34;;;;;;;1.38;0.60;;;;;;;16.09;62.56;100508.03;5004745;28;20054;-81
2022/05/29 12:43:31;;;;;;;4.15;0.80;;;;;;;16.20;62.70;100507.63;4982902;28;20595;-84
2022/05/29 12:46:30;;;;;;;3.75;0.93;;;;;;;16.21;61.24;100504.09;4989546;28;20347;-84